createdAt,value
2019-01-05T00:02:44.954Z,39.40
2019-01-05T00:05:42.979Z,39.40
2019-01-05T00:08:38.122Z,39.30
2019-01-05T00:11:25.672Z,39.10
2019-01-05T00:14:23.743Z,39.20
2019-01-05T00:17:15.746Z,39.30
2019-01-05T00:20:07.465Z,39.20
2019-01-05T00:22:57.487Z,39.10
2019-01-05T00:25:59.357Z,39.10
2019-01-05T00:28:46.490Z,39.00
2019-01-05T00:31:42.244Z,39.00
2019-01-05T00:34:35.283Z,39.20
2019-01-05T00:37:22.017Z,38.90
2019-01-05T00:40:17.055Z,39.00
2019-01-05T00:43:09.376Z,39.00
2019-01-05T00:45:53.375Z,39.00
2019-01-05T00:48:43.457Z,39.30
2019-01-05T00:51:31.570Z,39.30
2019-01-05T00:54:35.565Z,39.20
2019-01-05T00:57:42.518Z,38.80
2019-01-05T01:00:31.201Z,38.60
2019-01-05T01:03:18.479Z,39.00
2019-01-05T01:06:05.562Z,38.60
2019-01-05T01:08:54.492Z,38.90
2019-01-05T01:11:49.258Z,38.70
2019-01-05T01:14:34.558Z,38.50
2019-01-05T01:17:21.861Z,38.80
2019-01-05T01:20:25.705Z,38.80
2019-01-05T01:23:12.111Z,38.90
2019-01-05T01:26:13.752Z,38.90
2019-01-05T01:29:14.731Z,39.30
2019-01-05T01:32:02.313Z,38.90
2019-01-05T01:34:42.559Z,38.60
2019-01-05T01:37:38.806Z,38.50
2019-01-05T01:40:40.101Z,38.20
2019-01-05T01:43:27.152Z,38.60
2019-01-05T01:46:08.923Z,38.30
2019-01-05T01:49:06.642Z,38.70
2019-01-05T01:51:49.501Z,38.40
2019-01-05T01:54:36.813Z,38.70
2019-01-05T01:57:27.486Z,38.60
2019-01-05T02:00:23.654Z,38.70
2019-01-05T02:03:15.302Z,38.50
2019-01-05T02:06:05.874Z,38.60
2019-01-05T02:09:00.219Z,38.20
2019-01-05T02:11:59.302Z,38.70
2019-01-05T02:14:49.978Z,38.80
2019-01-05T02:18:01.601Z,38.40
2019-01-05T02:21:06.807Z,38.40
2019-01-05T02:24:51.781Z,38.40
2019-01-05T02:28:00.035Z,38.10
2019-01-05T02:31:13.966Z,38.30
2019-01-05T02:34:50.952Z,38.30
2019-01-05T02:38:22.646Z,38.10
2019-01-05T02:41:46.313Z,38.50
2019-01-05T02:45:16.438Z,38.40
2019-01-05T02:48:33.508Z,38.40
2019-01-05T02:52:01.470Z,38.20
2019-01-05T02:55:19.166Z,38.00
2019-01-05T02:58:51.454Z,38.40
2019-01-05T03:02:43.809Z,38.10
2019-01-05T03:06:28.240Z,38.40
2019-01-05T03:09:32.658Z,38.00
2019-01-05T03:13:10.407Z,38.20
2019-01-05T03:16:53.544Z,37.80
2019-01-05T03:20:13.806Z,38.20
2019-01-05T03:23:32.103Z,38.10
2019-01-05T03:27:10.958Z,38.10
2019-01-05T03:31:11.705Z,38.10
2019-01-05T03:35:04.381Z,38.00
2019-01-05T03:38:51.448Z,38.10
2019-01-05T03:42:23.114Z,37.90
2019-01-05T03:46:00.082Z,37.70
2019-01-05T03:49:35.206Z,38.00
2019-01-05T03:53:06.819Z,37.90
2019-01-05T03:56:34.007Z,38.30
2019-01-05T04:00:05.394Z,37.90
2019-01-05T04:03:25.218Z,38.20
2019-01-05T04:06:56.834Z,37.70
2019-01-05T04:10:42.479Z,38.00
2019-01-05T04:13:59.882Z,37.80
2019-01-05T04:17:18.047Z,38.40
2019-01-05T04:21:04.573Z,37.70
2019-01-05T04:24:00.927Z,37.80
2019-01-05T04:27:40.558Z,37.60
2019-01-05T04:31:27.518Z,38.20
2019-01-05T04:35:05.118Z,37.60
2019-01-05T04:38:15.730Z,37.80
2019-01-05T04:41:47.764Z,37.80
2019-01-05T04:45:03.469Z,37.90
2019-01-05T04:48:24.977Z,38.00
2019-01-05T04:51:45.238Z,37.50
2019-01-05T04:55:10.173Z,37.70
2019-01-05T04:58:37.589Z,37.50
2019-01-05T05:02:22.818Z,37.40
2019-01-05T05:05:54.693Z,37.60
2019-01-05T05:09:41.963Z,37.50
2019-01-05T05:13:08.209Z,37.40
2019-01-05T05:16:22.261Z,37.60
2019-01-05T05:19:55.492Z,37.50
2019-01-05T05:23:21.269Z,37.50
2019-01-05T05:26:48.144Z,37.30
2019-01-05T05:30:37.693Z,37.60
2019-01-05T05:34:20.166Z,37.30
2019-01-05T05:37:51.558Z,37.90
2019-01-05T05:41:27.806Z,37.60
2019-01-05T05:44:51.705Z,37.50
2019-01-05T05:48:33.870Z,37.30
2019-01-05T05:52:10.353Z,37.40
2019-01-05T05:55:44.770Z,37.20
2019-01-05T05:59:34.141Z,37.30
2019-01-05T06:02:43.300Z,37.40
2019-01-05T06:06:20.758Z,37.40
2019-01-05T06:10:19.082Z,37.50
2019-01-05T06:13:47.789Z,37.50
2019-01-05T06:16:53.061Z,37.20
2019-01-05T06:20:43.948Z,37.30
2019-01-05T06:24:16.293Z,37.20
2019-01-05T06:27:52.480Z,37.50
2019-01-05T06:31:20.962Z,37.20
2019-01-05T06:35:11.933Z,37.20
2019-01-05T06:38:52.844Z,37.30
2019-01-05T06:42:33.310Z,37.10
2019-01-05T06:46:16.825Z,37.00
2019-01-05T06:49:53.543Z,36.90
2019-01-05T06:53:41.341Z,36.90
2019-01-05T06:57:00.772Z,37.10
2019-01-05T07:00:50.524Z,37.00
2019-01-05T07:04:12.454Z,37.20
2019-01-05T07:07:38.267Z,37.30
2019-01-05T07:11:07.068Z,37.20
2019-01-05T07:14:13.132Z,37.30
2019-01-05T07:17:26.722Z,37.30
2019-01-05T07:21:19.987Z,37.20
2019-01-05T07:24:54.800Z,37.00
2019-01-05T07:28:31.328Z,36.80
2019-01-05T07:32:04.037Z,36.90
2019-01-05T07:35:37.256Z,37.00
2019-01-05T07:39:07.369Z,36.80
2019-01-05T07:42:54.046Z,36.90
2019-01-05T07:46:12.721Z,37.00
2019-01-05T07:49:37.746Z,37.00
2019-01-05T07:53:36.074Z,36.80
2019-01-05T07:57:26.245Z,37.20
2019-01-05T08:01:07.127Z,36.90
2019-01-05T08:04:40.713Z,36.90
2019-01-05T08:07:58.418Z,37.00
2019-01-05T08:11:13.594Z,37.10
2019-01-05T08:14:30.631Z,37.10
2019-01-05T08:18:22.222Z,36.80
2019-01-05T08:22:13.473Z,37.30
2019-01-05T08:25:42.661Z,37.10
2019-01-05T08:29:06.642Z,36.80
2019-01-05T08:32:45.606Z,37.20
2019-01-05T08:36:23.294Z,37.00
2019-01-05T08:39:46.519Z,37.30
2019-01-05T08:43:24.014Z,37.00
2019-01-05T08:46:47.250Z,37.00
2019-01-05T08:50:11.794Z,36.60
2019-01-05T08:53:49.149Z,37.10
2019-01-05T08:57:17.623Z,37.70
2019-01-05T09:00:30.261Z,37.60
2019-01-05T09:04:11.898Z,37.70
2019-01-05T09:07:55.599Z,38.30
2019-01-05T09:11:19.830Z,38.10
2019-01-05T09:14:59.266Z,38.00
2019-01-05T09:18:27.878Z,37.80
2019-01-05T09:21:49.411Z,37.90
2019-01-05T09:25:27.718Z,37.80
2019-01-05T09:28:57.998Z,37.80
2019-01-05T09:32:27.938Z,37.80
2019-01-05T09:35:58.699Z,37.80
2019-01-05T09:39:24.066Z,37.80
2019-01-05T09:42:39.610Z,38.00
2019-01-05T09:46:20.913Z,37.90
2019-01-05T09:49:58.588Z,38.00
2019-01-05T09:53:20.562Z,38.10
2019-01-05T09:56:54.459Z,38.20
2019-01-05T10:00:28.128Z,38.70
2019-01-05T10:03:54.606Z,38.60
2019-01-05T10:07:23.443Z,38.70
2019-01-05T10:10:53.419Z,38.90
2019-01-05T10:14:38.362Z,38.80
2019-01-05T10:18:13.787Z,38.90
2019-01-05T10:22:06.158Z,39.30
2019-01-05T10:25:40.857Z,39.20
2019-01-05T10:29:36.222Z,38.90
2019-01-05T10:32:59.202Z,39.00
2019-01-05T10:36:17.982Z,39.10
2019-01-05T10:39:51.859Z,39.00
2019-01-05T10:43:10.766Z,39.20
2019-01-05T10:46:39.007Z,39.70
2019-01-05T10:50:02.630Z,40.60
2019-01-05T10:53:30.360Z,41.20
2019-01-05T10:57:08.707Z,41.10
2019-01-05T11:00:36.128Z,40.80
2019-01-05T11:03:53.893Z,41.10
2019-01-05T11:07:40.977Z,40.80
2019-01-05T11:10:52.616Z,41.20
2019-01-05T11:13:59.686Z,41.00
2019-01-05T11:17:20.422Z,41.40
2019-01-05T11:20:47.475Z,41.60
2019-01-05T11:24:49.500Z,41.70
2019-01-05T11:28:18.109Z,41.80
2019-01-05T11:31:34.103Z,43.40
2019-01-05T11:35:22.160Z,43.90
2019-01-05T11:39:15.014Z,44.30
2019-01-05T11:42:43.499Z,46.30
2019-01-05T11:46:11.340Z,45.70
2019-01-05T11:49:14.475Z,46.30
2019-01-05T11:52:32.969Z,46.70
2019-01-05T11:56:20.491Z,47.00
2019-01-05T12:00:12.573Z,47.40
2019-01-05T12:03:46.923Z,47.60
2019-01-05T12:07:31.917Z,47.80
2019-01-05T12:11:02.652Z,48.40
2019-01-05T12:14:45.401Z,48.00
2019-01-05T12:18:19.490Z,47.60
2019-01-05T12:21:51.677Z,47.20
2019-01-05T12:25:52.421Z,47.30
2019-01-05T12:29:26.000Z,47.20
2019-01-05T12:33:01.918Z,47.20
2019-01-05T12:36:19.982Z,46.80
2019-01-05T12:39:44.269Z,46.80
2019-01-05T12:43:30.874Z,46.50
2019-01-05T12:46:56.739Z,46.40
2019-01-05T12:50:44.949Z,46.40
2019-01-05T12:54:07.721Z,46.30
2019-01-05T12:57:27.139Z,46.20
2019-01-05T13:00:59.550Z,46.10
2019-01-05T13:04:25.774Z,46.20
2019-01-05T13:07:30.273Z,46.20
2019-01-05T13:10:58.767Z,46.10
2019-01-05T13:14:30.522Z,46.10
2019-01-05T13:18:06.618Z,45.90
2019-01-05T13:21:25.101Z,46.40
2019-01-05T13:24:28.271Z,46.30
2019-01-05T13:27:41.118Z,46.60
2019-01-05T13:31:24.223Z,46.50
2019-01-05T13:35:01.422Z,46.00
2019-01-05T13:38:41.927Z,45.90
2019-01-05T13:42:16.630Z,45.90
2019-01-05T13:45:32.978Z,45.80
2019-01-05T13:48:46.227Z,45.40
2019-01-05T13:51:57.713Z,45.10
2019-01-05T13:54:50.804Z,44.80
2019-01-05T13:57:38.182Z,44.50
2019-01-05T14:00:18.847Z,44.20
2019-01-05T14:03:23.161Z,44.00
2019-01-05T14:06:06.291Z,43.90
2019-01-05T14:08:53.853Z,43.60
2019-01-05T14:11:45.506Z,43.40
2019-01-05T14:14:44.028Z,43.40
2019-01-05T14:17:51.160Z,43.00
2019-01-05T14:20:38.669Z,42.90
2019-01-05T14:23:27.574Z,42.70
2019-01-05T14:26:22.086Z,42.40
2019-01-05T14:29:09.512Z,42.30
2019-01-05T14:31:56.998Z,42.10
2019-01-05T14:34:44.305Z,42.10
2019-01-05T14:37:32.897Z,42.10
2019-01-05T14:40:21.158Z,42.00
2019-01-05T14:43:17.990Z,41.80
2019-01-05T14:46:00.046Z,41.80
2019-01-05T14:48:54.708Z,41.80
2019-01-05T14:51:38.630Z,41.80
2019-01-05T14:54:29.717Z,41.60
2019-01-05T14:57:27.439Z,41.60
2019-01-05T15:00:14.790Z,41.50
2019-01-05T15:03:06.480Z,41.50
2019-01-05T15:05:55.025Z,41.30
2019-01-05T15:08:42.518Z,41.20
2019-01-05T15:11:30.854Z,41.20
2019-01-05T15:14:22.303Z,41.10
2019-01-05T15:17:11.250Z,41.00
2019-01-05T15:20:00.212Z,40.90
2019-01-05T15:22:49.213Z,40.80
2019-01-05T15:25:38.122Z,40.80
2019-01-05T15:28:29.814Z,40.70
2019-01-05T15:31:20.676Z,40.70
2019-01-05T15:34:07.954Z,40.60
2019-01-05T15:37:02.763Z,40.60
2019-01-05T15:39:50.346Z,40.60
2019-01-05T15:42:45.320Z,40.50
2019-01-05T15:45:37.286Z,40.40
2019-01-05T15:48:31.993Z,40.40
2019-01-05T15:51:20.543Z,40.30
2019-01-05T15:54:08.498Z,40.30
2019-01-05T15:57:06.534Z,40.10
2019-01-05T16:00:04.653Z,40.10
2019-01-05T16:03:09.975Z,40.00
2019-01-05T16:05:57.554Z,40.00
2019-01-05T16:09:05.481Z,39.90
2019-01-05T16:11:52.989Z,39.90
2019-01-05T16:14:53.759Z,39.80
2019-01-05T16:17:41.238Z,39.80
2019-01-05T16:20:30.243Z,39.90
2019-01-05T16:23:32.539Z,39.50
2019-01-05T16:26:28.829Z,39.90
2019-01-05T16:29:26.957Z,40.60
2019-01-05T16:32:18.806Z,40.20
2019-01-05T16:35:25.806Z,40.70
2019-01-05T16:38:13.380Z,40.40
2019-01-05T16:41:08.316Z,40.50
2019-01-05T16:43:47.090Z,40.30
2019-01-05T16:46:45.230Z,40.70
2019-01-05T16:49:36.907Z,40.80
2019-01-05T16:52:43.745Z,40.90
2019-01-05T16:55:31.096Z,40.90
2019-01-05T16:58:18.128Z,40.80
2019-01-05T17:01:09.708Z,40.80
2019-01-05T17:03:58.703Z,40.90
2019-01-05T17:06:59.812Z,41.10
2019-01-05T17:09:54.817Z,41.10
2019-01-05T17:12:46.567Z,41.10
2019-01-05T17:15:36.429Z,41.20
2019-01-05T17:18:40.475Z,41.20
2019-01-05T17:21:40.914Z,41.30
2019-01-05T17:24:37.709Z,41.20
2019-01-05T17:27:29.089Z,41.40
2019-01-05T17:30:14.352Z,41.30
2019-01-05T17:33:02.473Z,41.60
2019-01-05T17:36:00.974Z,41.70
2019-01-05T17:38:48.630Z,41.60
2019-01-05T17:41:37.637Z,41.40
2019-01-05T17:44:15.787Z,41.20
2019-01-05T17:47:16.872Z,41.50
2019-01-05T17:50:19.213Z,41.70
2019-01-05T17:53:24.086Z,41.90
2019-01-05T17:56:10.586Z,41.70
2019-01-05T17:58:56.358Z,42.10
2019-01-05T18:01:57.375Z,42.70
2019-01-05T18:04:55.521Z,42.60
2019-01-05T18:07:43.095Z,42.30
2019-01-05T18:10:30.604Z,42.50
2019-01-05T18:13:26.107Z,42.60
2019-01-05T18:16:18.497Z,42.70
2019-01-05T18:19:06.821Z,42.90
2019-01-05T18:21:54.846Z,43.00
2019-01-05T18:24:53.060Z,42.90
2019-01-05T18:27:41.173Z,43.00
2019-01-05T18:30:32.957Z,42.90
2019-01-05T18:33:20.931Z,43.40
2019-01-05T18:36:08.856Z,43.60
2019-01-05T18:39:12.970Z,43.80
2019-01-05T18:42:00.990Z,43.80
2019-01-05T18:44:49.971Z,43.90
2019-01-05T18:47:41.959Z,43.90
2019-01-05T18:50:43.787Z,44.20
2019-01-05T18:53:40.973Z,43.90
2019-01-05T18:56:29.251Z,44.40
2019-01-05T18:59:14.772Z,44.30
2019-01-05T19:02:15.934Z,44.20
2019-01-05T19:05:18.429Z,44.50
2019-01-05T19:08:09.194Z,51.30
2019-01-05T19:10:56.546Z,44.90
2019-01-05T19:13:55.024Z,44.30
2019-01-05T19:16:56.134Z,45.10
2019-01-05T19:19:54.286Z,45.20
2019-01-05T19:22:45.578Z,44.90
2019-01-05T19:25:37.629Z,46.30
2019-01-05T19:28:31.922Z,46.00
2019-01-05T19:31:29.790Z,48.40
2019-01-05T19:34:17.366Z,48.80
2019-01-05T19:37:08.867Z,48.10
2019-01-05T19:40:11.559Z,47.90
2019-01-05T19:43:12.251Z,48.70
2019-01-05T19:45:59.635Z,48.90
2019-01-05T19:48:47.202Z,48.00
2019-01-05T19:51:36.170Z,48.60
2019-01-05T19:54:39.877Z,48.30
2019-01-05T19:57:34.505Z,47.80
2019-01-05T20:00:38.660Z,47.70
2019-01-05T20:03:27.923Z,48.00
2019-01-05T20:06:13.908Z,48.10
2019-01-05T20:09:01.977Z,48.20
2019-01-05T20:12:07.831Z,48.40
2019-01-05T20:14:59.353Z,48.60
2019-01-05T20:17:46.726Z,49.30
2019-01-05T20:20:36.872Z,48.70
2019-01-05T20:23:24.829Z,49.10
2019-01-05T20:26:06.472Z,48.60
2019-01-05T20:28:57.103Z,49.50
2019-01-05T20:31:58.200Z,48.60
2019-01-05T20:34:56.070Z,49.10
2019-01-05T20:37:45.102Z,49.40
2019-01-05T20:40:28.368Z,48.80
2019-01-05T20:43:15.798Z,48.80
2019-01-05T20:46:16.898Z,48.90
2019-01-05T20:49:06.553Z,48.50
2019-01-05T20:51:50.958Z,48.90
2019-01-05T20:54:55.406Z,48.50
2019-01-05T20:57:43.205Z,48.20
2019-01-05T21:00:32.145Z,48.20
2019-01-05T21:03:19.483Z,48.10
2019-01-05T21:06:12.395Z,47.70
2019-01-05T21:09:00.178Z,47.50
2019-01-05T21:11:49.365Z,47.40
2019-01-05T21:14:44.487Z,48.00
2019-01-05T21:17:31.728Z,47.80
2019-01-05T21:20:19.777Z,47.40
2019-01-05T21:23:04.545Z,47.70
2019-01-05T21:25:46.097Z,48.10
2019-01-05T21:28:33.685Z,47.90
2019-01-05T21:31:25.282Z,48.40
2019-01-05T21:34:29.390Z,47.60
2019-01-05T21:37:14.302Z,47.70
2019-01-05T21:40:01.675Z,48.00
2019-01-05T21:42:56.652Z,47.50
2019-01-05T21:45:48.288Z,47.20
2019-01-05T21:48:35.857Z,47.00
2019-01-05T21:51:23.013Z,46.90
2019-01-05T21:54:14.992Z,46.90
2019-01-05T21:57:03.019Z,46.70
2019-01-05T21:59:50.559Z,46.40
2019-01-05T22:02:39.504Z,46.30
2019-01-05T22:05:23.668Z,46.00
2019-01-05T22:08:22.766Z,45.70
2019-01-05T22:11:11.901Z,45.20
2019-01-05T22:13:57.265Z,45.50
2019-01-05T22:17:04.502Z,45.70
2019-01-05T22:20:05.663Z,47.90
2019-01-05T22:22:54.139Z,45.20
2019-01-05T22:25:55.337Z,45.60
2019-01-05T22:28:50.147Z,45.20
2019-01-05T22:31:37.543Z,45.30
2019-01-05T22:34:35.518Z,45.30
2019-01-05T22:37:24.546Z,45.20
2019-01-05T22:40:25.761Z,45.20
2019-01-05T22:43:12.097Z,45.20
2019-01-05T22:46:10.190Z,45.20
2019-01-05T22:48:57.612Z,45.30
2019-01-05T22:51:45.230Z,45.10
2019-01-05T22:54:34.330Z,45.20
2019-01-05T22:57:23.272Z,45.10
2019-01-05T23:00:24.435Z,45.50
2019-01-05T23:03:11.940Z,45.90
2019-01-05T23:05:59.430Z,45.20
2019-01-05T23:08:46.804Z,45.40
2019-01-05T23:11:34.730Z,45.40
2019-01-05T23:14:22.474Z,45.30
2019-01-05T23:17:17.646Z,45.20
2019-01-05T23:20:05.124Z,45.40
2019-01-05T23:22:54.049Z,45.20
2019-01-05T23:25:39.625Z,45.20
2019-01-05T23:28:36.547Z,45.40
2019-01-05T23:31:31.233Z,45.20
2019-01-05T23:34:10.260Z,45.30
2019-01-05T23:37:00.435Z,45.40
2019-01-05T23:39:48.273Z,45.20
2019-01-05T23:42:35.544Z,45.20
2019-01-05T23:45:28.190Z,45.40
2019-01-05T23:48:19.072Z,45.70
2019-01-05T23:51:13.866Z,45.30
2019-01-05T23:54:01.421Z,45.40
2019-01-05T23:56:50.378Z,45.60
2019-01-05T23:59:37.225Z,45.40
